Time;durP1;ratioP1;P1;durP2;ratioP2;P2;SDS_P1;SDS_P2;PMS_P1;PMS_P2;Temp;Humidity;BMP_temperature;BMP_pressure;BME280_temperature;BME280_humidity;BME280_pressure;Samples;Min_cycle;Max_cycle;Signal;HPM_P1;HPM_P2
2021/05/07 00:01:58;;;;;;;40.20;23.50;;;5.40;99.90;;;;;;5113740;28;20305;-76
2021/05/07 00:04:24;;;;;;;41.90;23.90;;;5.30;99.90;;;;;;5098975;28;20195;-78
2021/05/07 00:06:52;;;;;;;46.33;25.53;;;5.30;99.90;;;;;;5113171;28;20301;-76
2021/05/07 00:09:19;;;;;;;40.87;23.87;;;5.40;99.90;;;;;;5113413;28;20625;-76
2021/05/07 00:11:46;;;;;;;41.47;25.00;;;5.30;99.90;;;;;;5113588;28;20209;-76
2021/05/07 00:14:13;;;;;;;51.27;25.93;;;5.40;99.90;;;;;;5113226;28;20634;-77
2021/05/07 00:16:39;;;;;;;45.83;24.20;;;5.40;99.90;;;;;;5113416;28;20200;-78
2021/05/07 00:19:06;;;;;;;41.10;23.53;;;5.30;99.90;;;;;;5113333;28;20287;-76
2021/05/07 00:21:34;;;;;;;47.10;24.50;;;5.40;99.90;;;;;;5113570;28;20221;-78
2021/05/07 00:24:01;;;;;;;45.10;24.37;;;5.40;99.90;;;;;;5113431;28;20203;-78
2021/05/07 00:26:27;;;;;;;45.47;24.80;;;5.40;99.90;;;;;;5113462;28;20219;-75
2021/05/07 00:28:54;;;;;;;43.90;24.93;;;5.40;99.90;;;;;;5113773;28;20205;-76
2021/05/07 00:31:21;;;;;;;46.73;25.60;;;5.40;99.90;;;;;;5113618;28;20573;-78
2021/05/07 00:33:47;;;;;;;53.00;25.67;;;5.40;99.90;;;;;;5114527;28;20251;-75
2021/05/07 00:36:14;;;;;;;44.23;25.33;;;5.40;99.90;;;;;;5116119;28;20297;-78
2021/05/07 00:38:40;;;;;;;47.70;25.63;;;5.40;99.90;;;;;;5113432;28;20612;-77
2021/05/07 00:41:06;;;;;;;54.07;26.83;;;5.40;99.90;;;;;;5113658;28;20210;-76
2021/05/07 00:43:33;;;;;;;46.47;25.30;;;5.40;99.90;;;;;;5113692;28;20294;-78
2021/05/07 00:46:00;;;;;;;42.30;25.47;;;5.40;99.90;;;;;;5113135;28;20227;-76
2021/05/07 00:48:27;;;;;;;46.23;26.50;;;5.30;99.90;;;;;;5112946;28;20206;-77
2021/05/07 00:50:53;;;;;;;47.90;26.90;;;5.30;99.90;;;;;;5113197;28;20210;-79
2021/05/07 00:53:21;;;;;;;46.90;26.13;;;5.30;99.90;;;;;;5112860;28;20197;-78
2021/05/07 00:55:48;;;;;;;46.60;24.90;;;5.30;99.90;;;;;;5112726;28;20201;-77
2021/05/07 00:58:15;;;;;;;45.80;25.30;;;5.30;99.90;;;;;;5112917;28;20205;-77
2021/05/07 01:00:41;;;;;;;49.73;27.00;;;5.40;99.90;;;;;;5113203;28;20195;-78
2021/05/07 01:03:09;;;;;;;45.90;25.57;;;5.40;99.90;;;;;;5117037;28;20207;-78
2021/05/07 01:05:35;;;;;;;49.90;26.83;;;5.40;99.90;;;;;;5117064;28;20251;-79
2021/05/07 01:08:01;;;;;;;51.60;27.50;;;5.40;99.90;;;;;;5116536;28;20229;-78
2021/05/07 01:10:28;;;;;;;51.93;27.43;;;5.40;99.90;;;;;;5116797;27;20207;-77
2021/05/07 01:12:54;;;;;;;49.13;27.30;;;5.40;99.90;;;;;;5116680;28;20199;-77
2021/05/07 01:15:22;;;;;;;54.03;27.50;;;5.40;99.90;;;;;;5116326;28;20205;-76
2021/05/07 01:17:50;;;;;;;46.23;26.13;;;5.40;99.90;;;;;;5116596;28;20228;-75
2021/05/07 01:20:19;;;;;;;50.53;26.20;;;5.40;99.90;;;;;;5116461;28;20675;-76
2021/05/07 01:22:47;;;;;;;45.40;26.43;;;5.30;99.90;;;;;;5116329;28;20199;-77
2021/05/07 01:25:15;;;;;;;47.60;26.17;;;5.40;99.90;;;;;;5116353;28;20294;-79
2021/05/07 01:27:45;;;;;;;43.93;26.23;;;5.30;99.90;;;;;;5116518;28;20200;-78
2021/05/07 01:30:15;;;;;;;42.50;25.70;;;5.30;99.90;;;;;;5116116;28;20196;-79
2021/05/07 01:32:41;;;;;;;45.57;26.67;;;5.30;99.90;;;;;;5116378;28;20203;-76
2021/05/07 01:35:11;;;;;;;51.80;26.37;;;5.30;99.90;;;;;;5115871;28;20200;-79
2021/05/07 01:37:38;;;;;;;47.53;25.53;;;5.30;99.90;;;;;;5115964;28;20231;-78
2021/05/07 01:40:16;;;;;;;48.00;27.10;;;5.20;99.90;;;;;;5115917;28;20657;-76
2021/05/07 01:42:42;;;;;;;45.17;26.20;;;5.20;99.90;;;;;;5116215;28;20188;-78
2021/05/07 01:45:10;;;;;;;47.33;25.67;;;5.20;99.90;;;;;;5116088;28;20623;-76
2021/05/07 01:47:37;;;;;;;48.20;26.93;;;5.30;99.90;;;;;;5115895;28;20247;-76
2021/05/07 01:50:05;;;;;;;46.67;26.37;;;5.20;99.90;;;;;;5115946;28;20245;-76
2021/05/07 01:52:32;;;;;;;49.03;27.70;;;5.30;99.90;;;;;;5101555;28;20207;-77
2021/05/07 01:55:00;;;;;;;46.77;26.10;;;5.30;99.90;;;;;;5115928;28;20251;-76
2021/05/07 01:57:28;;;;;;;44.10;25.60;;;5.30;99.90;;;;;;5115693;28;20200;-77
2021/05/07 01:59:55;;;;;;;45.27;25.53;;;5.40;99.90;;;;;;5115523;28;20210;-77
2021/05/07 02:02:21;;;;;;;47.83;25.90;;;5.40;99.90;;;;;;5115623;28;20222;-78
2021/05/07 02:04:48;;;;;;;47.23;25.17;;;5.40;99.90;;;;;;5109430;28;20296;-78
2021/05/07 02:07:14;;;;;;;45.37;25.77;;;5.30;99.90;;;;;;5113339;28;20601;-77
2021/05/07 02:09:41;;;;;;;44.87;26.37;;;5.30;99.90;;;;;;5115574;28;20227;-76
2021/05/07 02:12:09;;;;;;;44.27;25.27;;;5.30;99.90;;;;;;5115415;28;20206;-76
2021/05/07 02:14:35;;;;;;;42.07;24.30;;;5.20;99.90;;;;;;5114617;27;20218;-77
2021/05/07 02:17:02;;;;;;;44.10;26.40;;;5.10;99.90;;;;;;5115196;28;20203;-75
2021/05/07 02:19:28;;;;;;;44.00;24.87;;;5.10;99.90;;;;;;5115276;28;20198;-78
2021/05/07 02:21:54;;;;;;;46.63;26.07;;;5.10;99.90;;;;;;5114673;28;20674;-75
2021/05/07 02:24:21;;;;;;;43.73;25.10;;;5.20;99.90;;;;;;5115335;28;20647;-75
2021/05/07 02:26:47;;;;;;;45.77;24.97;;;5.20;99.90;;;;;;5114973;28;20230;-75
2021/05/07 02:29:16;;;;;;;44.50;25.20;;;5.20;99.90;;;;;;5115128;28;20207;-76
2021/05/07 02:31:43;;;;;;;42.53;24.70;;;5.10;99.90;;;;;;5115021;28;20286;-76
2021/05/07 02:34:09;;;;;;;44.30;24.27;;;5.10;99.90;;;;;;5114819;28;20246;-75
2021/05/07 02:36:36;;;;;;;46.10;25.40;;;5.10;99.90;;;;;;5115062;28;20200;-76
2021/05/07 02:39:03;;;;;;;43.97;23.97;;;5.10;99.90;;;;;;5114716;28;20579;-79
2021/05/07 02:41:29;;;;;;;44.23;24.47;;;5.00;99.90;;;;;;5115183;28;20558;-80
2021/05/07 02:43:56;;;;;;;40.90;23.53;;;5.00;99.90;;;;;;5114901;28;20199;-76
2021/05/07 02:46:23;;;;;;;42.83;24.43;;;5.00;99.90;;;;;;5114522;28;20222;-78
2021/05/07 02:48:49;;;;;;;47.07;23.93;;;5.10;99.90;;;;;;5115045;28;20197;-78
2021/05/07 02:51:15;;;;;;;36.87;23.03;;;5.20;99.90;;;;;;5114744;28;20298;-77
2021/05/07 02:53:42;;;;;;;38.40;22.57;;;5.30;99.90;;;;;;5114427;28;20287;-76
2021/05/07 02:56:08;;;;;;;38.70;21.40;;;5.40;99.90;;;;;;5114421;28;20697;-77
2021/05/07 02:58:34;;;;;;;36.43;21.10;;;5.50;99.90;;;;;;5114460;28;20267;-76
2021/05/07 03:01:01;;;;;;;40.17;21.07;;;5.60;99.90;;;;;;5114389;28;20199;-78
2021/05/07 03:03:28;;;;;;;31.53;19.10;;;5.60;99.90;;;;;;5115031;28;20218;-78
2021/05/07 03:05:54;;;;;;;30.20;19.00;;;5.70;99.90;;;;;;5114329;28;20225;-76
2021/05/07 03:08:22;;;;;;;33.80;19.60;;;5.70;99.90;;;;;;5114072;28;20203;-76
2021/05/07 03:10:49;;;;;;;33.50;18.97;;;5.70;99.90;;;;;;5114255;28;20199;-77
2021/05/07 03:13:15;;;;;;;28.03;17.80;;;5.60;99.90;;;;;;5114140;28;20200;-78
2021/05/07 03:15:41;;;;;;;34.10;18.30;;;5.60;99.90;;;;;;5114428;28;20288;-79
2021/05/07 03:18:13;;;;;;;32.63;17.93;;;5.50;99.90;;;;;;5114130;28;20197;-76
2021/05/07 03:20:41;;;;;;;29.90;17.57;;;5.50;99.90;;;;;;5100764;28;20195;-76
2021/05/07 03:23:07;;;;;;;30.00;17.70;;;5.40;99.90;;;;;;5114095;28;20208;-76
2021/05/07 03:25:34;;;;;;;30.80;17.17;;;5.40;99.90;;;;;;5113386;28;20279;-76
2021/05/07 03:28:00;;;;;;;26.80;17.37;;;5.40;99.90;;;;;;5114150;28;20260;-76
2021/05/07 03:30:26;;;;;;;27.60;16.07;;;5.50;99.90;;;;;;5113997;28;20210;-79
2021/05/07 03:32:53;;;;;;;29.83;17.67;;;5.50;99.90;;;;;;5114228;28;20298;-76
2021/05/07 03:35:19;;;;;;;32.83;18.03;;;5.60;99.90;;;;;;5113839;28;20286;-76
2021/05/07 03:37:46;;;;;;;29.67;16.83;;;5.60;99.90;;;;;;5120444;28;20208;-76
2021/05/07 03:40:13;;;;;;;29.90;17.07;;;5.60;99.90;;;;;;5100829;28;20295;-77
2021/05/07 03:42:40;;;;;;;29.00;17.13;;;5.60;99.90;;;;;;5095125;28;20196;-76
2021/05/07 03:45:07;;;;;;;28.43;17.10;;;5.70;99.90;;;;;;5094831;28;20745;-76
2021/05/07 03:47:34;;;;;;;30.27;17.33;;;5.70;99.90;;;;;;5096267;28;20226;-76
2021/05/07 03:50:00;;;;;;;30.57;17.80;;;5.70;99.90;;;;;;5095124;28;20206;-77
2021/05/07 03:52:26;;;;;;;26.57;16.50;;;5.70;99.90;;;;;;5096404;28;20199;-75
2021/05/07 03:54:53;;;;;;;27.33;16.93;;;5.60;99.90;;;;;;5094848;28;20212;-76
2021/05/07 03:57:20;;;;;;;29.40;17.47;;;5.70;99.90;;;;;;5095236;28;20615;-79
2021/05/07 03:59:46;;;;;;;26.17;16.97;;;5.70;99.90;;;;;;5095777;28;20226;-76
2021/05/07 04:02:13;;;;;;;28.07;16.67;;;5.70;99.90;;;;;;5094942;28;20207;-76
2021/05/07 04:04:41;;;;;;;23.33;15.17;;;5.80;99.90;;;;;;5096586;28;20222;-76
2021/05/07 04:07:07;;;;;;;28.07;15.97;;;5.80;99.90;;;;;;5094666;28;20249;-76
2021/05/07 04:09:36;;;;;;;25.30;14.20;;;5.80;99.90;;;;;;5096115;28;20356;-75
2021/05/07 04:12:13;;;;;;;23.60;14.10;;;5.80;99.90;;;;;;5094953;28;20281;-75
2021/05/07 04:14:39;;;;;;;22.63;13.03;;;5.90;99.90;;;;;;5108430;28;20199;-78
2021/05/07 04:17:06;;;;;;;19.67;12.43;;;5.90;99.90;;;;;;5112978;28;20286;-77
2021/05/07 04:19:32;;;;;;;19.67;11.93;;;5.90;99.90;;;;;;5113101;28;20287;-76
2021/05/07 04:21:58;;;;;;;18.43;11.30;;;5.90;99.90;;;;;;5113206;28;20286;-77
2021/05/07 04:24:25;;;;;;;18.60;11.60;;;6.00;99.90;;;;;;5112845;28;20259;-76
2021/05/07 04:26:52;;;;;;;20.53;12.03;;;6.00;99.90;;;;;;5112909;28;20688;-77
2021/05/07 04:29:21;;;;;;;16.80;10.67;;;6.10;99.90;;;;;;5113007;28;20294;-79
2021/05/07 04:31:47;;;;;;;20.37;11.03;;;6.10;99.90;;;;;;5112642;28;20264;-76
2021/05/07 04:34:14;;;;;;;17.40;10.77;;;6.20;99.90;;;;;;5112943;28;20198;-78
2021/05/07 04:36:40;;;;;;;23.33;11.63;;;6.30;99.90;;;;;;5112595;28;20717;-78
2021/05/07 04:39:07;;;;;;;23.00;11.30;;;6.30;99.90;;;;;;5111786;28;20200;-77
2021/05/07 04:41:34;;;;;;;18.77;11.20;;;6.30;99.90;;;;;;5112981;28;20312;-76
2021/05/07 04:44:01;;;;;;;17.37;10.43;;;6.30;99.90;;;;;;5112645;28;20192;-78
2021/05/07 04:46:28;;;;;;;23.10;11.03;;;6.30;99.90;;;;;;5112878;28;20291;-76
2021/05/07 04:48:54;;;;;;;16.87;10.43;;;6.30;99.90;;;;;;5112178;28;20563;-76
2021/05/07 04:51:21;;;;;;;16.63;10.37;;;6.30;99.90;;;;;;5111863;28;20272;-78
2021/05/07 04:53:47;;;;;;;19.30;10.10;;;6.40;99.90;;;;;;5112519;28;20617;-76
2021/05/07 04:56:14;;;;;;;18.33;9.90;;;6.40;99.90;;;;;;5112438;28;20220;-76
2021/05/07 04:58:40;;;;;;;13.33;8.17;;;6.50;99.90;;;;;;5111320;28;20223;-75
2021/05/07 05:01:07;;;;;;;15.13;8.83;;;6.60;99.90;;;;;;5112191;28;20203;-75
2021/05/07 05:03:34;;;;;;;14.50;8.50;;;6.60;99.90;;;;;;5112493;28;20290;-78
2021/05/07 05:06:00;;;;;;;14.00;8.07;;;6.60;99.90;;;;;;5112672;28;20227;-75
2021/05/07 05:08:28;;;;;;;13.90;8.30;;;6.60;99.90;;;;;;5113027;28;20200;-78
2021/05/07 05:10:55;;;;;;;10.37;7.73;;;6.50;99.90;;;;;;5112638;28;20234;-77
2021/05/07 05:13:22;;;;;;;13.47;8.37;;;6.60;99.90;;;;;;5111530;28;20194;-76
2021/05/07 05:15:49;;;;;;;13.53;7.50;;;7.00;99.90;;;;;;5105853;28;20275;-74
2021/05/07 05:18:28;;;;;;;13.23;7.73;;;7.50;99.90;;;;;;5108079;28;20193;-76
2021/05/07 05:20:57;;;;;;;12.20;7.57;;;7.60;99.90;;;;;;5109885;28;20216;-76
2021/05/07 05:23:23;;;;;;;11.77;6.70;;;7.60;99.90;;;;;;5111603;28;20204;-77
2021/05/07 05:25:50;;;;;;;13.53;7.10;;;7.50;99.90;;;;;;5104942;28;20204;-79
2021/05/07 05:28:16;;;;;;;13.83;7.60;;;7.30;99.90;;;;;;5111332;28;20203;-75
2021/05/07 05:30:43;;;;;;;9.97;6.93;;;7.30;99.90;;;;;;5111625;28;20191;-79
2021/05/07 05:33:09;;;;;;;9.03;6.43;;;7.20;99.90;;;;;;5111712;28;20194;-75
2021/05/07 05:35:36;;;;;;;9.80;6.37;;;7.70;99.90;;;;;;5097958;28;20209;-75
2021/05/07 05:38:03;;;;;;;10.17;6.13;;;8.70;99.90;;;;;;5111224;28;20212;-76
2021/05/07 05:40:30;;;;;;;12.47;5.90;;;9.90;99.90;;;;;;5111174;28;20194;-76
2021/05/07 05:42:57;;;;;;;9.10;5.33;;;10.00;99.90;;;;;;5108271;28;20211;-77
2021/05/07 05:45:24;;;;;;;8.00;5.53;;;9.30;99.90;;;;;;5111540;28;20228;-76
2021/05/07 05:48:01;;;;;;;10.70;5.70;;;8.90;99.90;;;;;;5103006;28;20224;-77
2021/05/07 05:50:27;;;;;;;10.23;5.57;;;8.40;99.90;;;;;;5115263;28;20202;-80
2021/05/07 05:52:53;;;;;;;11.90;6.40;;;8.00;99.90;;;;;;5114722;28;20678;-79
2021/05/07 05:55:21;;;;;;;9.23;6.07;;;7.70;99.90;;;;;;5114914;28;20211;-76
2021/05/07 05:57:48;;;;;;;11.73;4.87;;;7.90;99.90;;;;;;5114843;27;20211;-77
2021/05/07 06:00:15;;;;;;;7.77;4.80;;;8.00;99.90;;;;;;5115204;28;20284;-77
2021/05/07 06:02:42;;;;;;;7.50;4.10;;;8.70;99.90;;;;;;5111888;28;20204;-79
2021/05/07 06:05:10;;;;;;;5.47;4.03;;;8.60;99.90;;;;;;5114828;28;20198;-78
2021/05/07 06:07:36;;;;;;;5.87;3.80;;;8.60;99.90;;;;;;5114350;28;20223;-78
2021/05/07 06:10:03;;;;;;;4.57;3.67;;;8.50;99.90;;;;;;5111328;28;20227;-80
2021/05/07 06:12:30;;;;;;;6.27;4.00;;;8.50;99.90;;;;;;5092038;28;20516;-77
2021/05/07 06:14:57;;;;;;;7.43;4.23;;;8.20;99.90;;;;;;5094558;28;20199;-79
2021/05/07 06:17:23;;;;;;;6.90;4.27;;;8.30;99.90;;;;;;5112371;28;20206;-78
2021/05/07 06:19:50;;;;;;;6.30;4.23;;;8.30;99.90;;;;;;5095335;28;20363;-78
2021/05/07 06:22:16;;;;;;;5.93;4.40;;;8.40;99.90;;;;;;5095441;28;20197;-75
2021/05/07 06:24:42;;;;;;;5.27;4.40;;;8.30;99.90;;;;;;5094640;28;20240;-78
2021/05/07 06:27:09;;;;;;;5.27;3.93;;;8.20;99.90;;;;;;5094759;28;20222;-78
2021/05/07 06:29:36;;;;;;;5.83;4.77;;;7.90;99.90;;;;;;5094863;28;20261;-77
2021/05/07 06:32:03;;;;;;;5.27;4.67;;;7.90;99.90;;;;;;5095153;28;20297;-78
2021/05/07 06:34:29;;;;;;;5.13;4.33;;;8.00;99.90;;;;;;5095279;28;20334;-78
2021/05/07 06:36:55;;;;;;;5.70;4.47;;;8.00;99.90;;;;;;5094908;28;20197;-77
2021/05/07 06:39:24;;;;;;;5.37;4.40;;;8.00;99.90;;;;;;5095259;28;20705;-79
2021/05/07 06:41:50;;;;;;;5.73;4.33;;;8.10;99.90;;;;;;5095015;28;20194;-78
2021/05/07 06:44:17;;;;;;;5.03;4.53;;;8.20;99.90;;;;;;5095468;28;20290;-77
2021/05/07 06:46:44;;;;;;;5.67;4.07;;;8.60;99.90;;;;;;5095435;28;20634;-78
2021/05/07 06:49:10;;;;;;;4.77;4.13;;;8.70;99.90;;;;;;5094745;28;20201;-78
2021/05/07 06:51:37;;;;;;;7.33;4.00;;;8.80;99.90;;;;;;5095249;28;20191;-77
2021/05/07 06:54:06;;;;;;;4.67;3.97;;;8.60;99.90;;;;;;5094983;28;20228;-78
2021/05/07 06:56:32;;;;;;;4.87;3.83;;;9.30;99.90;;;;;;5094283;28;20584;-81
2021/05/07 06:58:59;;;;;;;6.03;3.50;;;9.90;99.90;;;;;;5094123;28;20303;-80
2021/05/07 07:01:25;;;;;;;4.70;3.60;;;9.80;99.90;;;;;;5096660;28;20744;-78
2021/05/07 07:03:52;;;;;;;4.77;3.67;;;10.20;99.90;;;;;;5097328;28;20719;-79
2021/05/07 07:06:19;;;;;;;6.40;4.00;;;10.20;99.90;;;;;;5096878;28;20282;-79
2021/05/07 07:08:47;;;;;;;3.97;3.47;;;9.60;99.90;;;;;;5097222;28;20658;-79
2021/05/07 07:11:13;;;;;;;4.10;3.70;;;9.50;99.90;;;;;;5096970;28;20197;-78
2021/05/07 07:13:40;;;;;;;3.97;3.57;;;8.80;99.90;;;;;;5096881;28;20223;-78
2021/05/07 07:16:06;;;;;;;4.43;4.03;;;8.60;99.90;;;;;;5104809;28;20258;-78
2021/05/07 07:18:33;;;;;;;4.13;3.73;;;8.70;99.90;;;;;;5117253;28;20316;-78
2021/05/07 07:21:00;;;;;;;6.80;3.93;;;8.80;99.90;;;;;;5117406;28;20288;-79
2021/05/07 07:23:27;;;;;;;5.17;4.30;;;8.70;99.90;;;;;;5116800;28;20201;-79
2021/05/07 07:25:53;;;;;;;4.27;3.50;;;9.00;99.90;;;;;;5116049;28;20200;-79
2021/05/07 07:28:20;;;;;;;5.00;3.53;;;9.20;99.90;;;;;;5115713;28;20202;-79
2021/05/07 07:30:46;;;;;;;5.33;3.90;;;9.50;99.90;;;;;;5115865;28;20280;-79
2021/05/07 07:33:13;;;;;;;4.03;3.63;;;9.80;99.90;;;;;;5117067;28;20700;-79
2021/05/07 07:35:40;;;;;;;4.40;3.93;;;10.10;99.90;;;;;;5116829;28;20567;-78
2021/05/07 07:38:07;;;;;;;4.10;3.70;;;10.00;99.90;;;;;;5115999;28;20196;-78
2021/05/07 07:40:33;;;;;;;4.47;4.00;;;10.30;99.90;;;;;;5115886;27;20223;-79
2021/05/07 07:43:00;;;;;;;4.20;3.80;;;10.30;99.90;;;;;;5116372;28;20646;-79
2021/05/07 07:45:26;;;;;;;4.53;4.00;;;10.30;99.90;;;;;;5117996;28;20196;-78
2021/05/07 07:47:52;;;;;;;4.27;3.87;;;9.80;99.90;;;;;;5117883;28;20230;-79
2021/05/07 07:50:19;;;;;;;5.90;4.07;;;9.60;99.90;;;;;;5118968;28;20203;-80
2021/05/07 07:52:45;;;;;;;5.27;3.33;;;10.00;99.90;;;;;;5118262;28;20290;-79
2021/05/07 07:55:13;;;;;;;3.40;2.90;;;11.00;99.90;;;;;;5117413;28;20204;-79
2021/05/07 07:57:41;;;;;;;4.57;2.70;;;12.70;99.90;;;;;;5117841;28;20251;-79
2021/05/07 08:00:09;;;;;;;5.37;2.70;;;14.90;99.90;;;;;;5118645;28;20196;-79
2021/05/07 08:02:36;;;;;;;3.97;3.03;;;16.70;99.90;;;;;;5115049;28;20668;-79
2021/05/07 08:05:02;;;;;;;3.33;2.50;;;18.40;99.90;;;;;;5112260;28;20293;-79
2021/05/07 08:07:28;;;;;;;4.83;2.47;;;19.60;99.90;;;;;;5112260;28;20259;-80
2021/05/07 08:09:55;;;;;;;3.07;2.73;;;19.70;99.90;;;;;;5112054;28;20280;-80
2021/05/07 08:12:22;;;;;;;3.70;2.77;;;21.10;99.90;;;;;;5112155;28;20292;-79
2021/05/07 08:14:48;;;;;;;6.23;3.30;;;21.30;99.90;;;;;;5113494;28;20290;-78
2021/05/07 08:17:15;;;;;;;5.10;3.00;;;18.90;99.90;;;;;;5113613;28;20226;-78
2021/05/07 08:19:41;;;;;;;4.00;2.70;;;18.40;99.90;;;;;;5113377;28;20233;-79
2021/05/07 08:22:07;;;;;;;2.57;2.37;;;19.30;99.90;;;;;;5113673;28;20289;-80
2021/05/07 08:24:34;;;;;;;3.40;3.10;;;20.50;99.90;;;;;;5113971;28;20206;-79
2021/05/07 08:27:01;;;;;;;3.70;3.40;;;18.70;99.90;;;;;;5113649;28;20221;-79
2021/05/07 08:29:28;;;;;;;4.10;3.37;;;18.50;99.90;;;;;;5114041;28;20285;-79
2021/05/07 08:31:55;;;;;;;4.13;3.30;;;18.00;99.90;;;;;;5113666;28;20277;-81
2021/05/07 08:34:21;;;;;;;5.10;3.40;;;17.20;99.90;;;;;;5113513;28;20667;-78
2021/05/07 08:36:47;;;;;;;3.60;3.13;;;16.50;99.90;;;;;;5112838;28;20202;-78
2021/05/07 08:39:14;;;;;;;4.07;2.73;;;16.40;99.90;;;;;;5112978;28;20200;-79
2021/05/07 08:41:43;;;;;;;3.40;2.40;;;17.60;99.90;;;;;;5113081;28;20198;-80
2021/05/07 08:44:10;;;;;;;4.57;3.50;;;19.50;99.90;;;;;;5112743;28;20290;-79
2021/05/07 08:46:41;;;;;;;6.93;3.43;;;20.80;99.90;;;;;;5113051;28;20245;-79
2021/05/07 08:49:07;;;;;;;5.30;3.40;;;21.20;99.90;;;;;;5112829;28;20194;-79
2021/05/07 08:51:34;;;;;;;4.73;3.63;;;21.40;99.90;;;;;;5112817;28;20198;-79
2021/05/07 08:54:00;;;;;;;4.57;3.80;;;20.20;99.90;;;;;;5113263;28;20249;-78
2021/05/07 08:56:27;;;;;;;4.10;3.70;;;19.80;99.90;;;;;;5112959;28;20193;-80
2021/05/07 08:58:53;;;;;;;4.50;3.80;;;19.90;99.90;;;;;;5113192;28;20281;-79
2021/05/07 09:01:19;;;;;;;5.30;3.73;;;21.60;99.90;;;;;;5113073;28;20229;-78
2021/05/07 09:03:48;;;;;;;4.53;3.73;;;21.70;99.90;;;;;;5112719;28;20685;-79
2021/05/07 09:06:16;;;;;;;6.37;4.10;;;21.40;99.90;;;;;;5112613;28;20652;-80
2021/05/07 09:08:42;;;;;;;4.10;3.70;;;22.00;99.90;;;;;;5113539;28;20247;-79
2021/05/07 09:11:09;;;;;;;4.30;3.33;;;21.10;99.90;;;;;;5112865;28;20205;-79
2021/05/07 09:13:35;;;;;;;4.30;3.67;;;18.10;99.90;;;;;;5112531;28;20281;-79
2021/05/07 09:16:05;;;;;;;4.97;3.67;;;18.00;99.90;;;;;;5112561;28;20281;-80
2021/05/07 09:18:41;;;;;;;4.23;3.60;;;17.60;99.90;;;;;;5113034;28;20648;-80
2021/05/07 09:21:09;;;;;;;5.03;3.80;;;17.80;99.90;;;;;;5112780;28;20209;-79
2021/05/07 09:23:39;;;;;;;5.40;3.97;;;19.40;99.90;;;;;;5115030;28;20201;-79
2021/05/07 09:26:06;;;;;;;4.77;3.93;;;19.90;99.90;;;;;;5116412;28;20210;-79
2021/05/07 09:28:33;;;;;;;5.60;3.80;;;19.60;99.90;;;;;;5115967;28;20620;-78
2021/05/07 09:31:10;;;;;;;4.67;3.90;;;20.30;99.90;;;;;;5116205;28;20280;-78
2021/05/07 09:33:41;;;;;;;6.47;3.67;;;21.80;99.90;;;;;;5116774;28;20655;-77
2021/05/07 09:36:08;;;;;;;6.17;4.20;;;23.20;99.90;;;;;;5116670;28;20206;-77
2021/05/07 09:38:36;;;;;;;6.20;4.93;;;23.60;99.90;;;;;;5116605;28;20268;-79
2021/05/07 09:41:03;;;;;;;6.43;5.17;;;22.40;99.90;;;;;;5116479;28;20190;-77
2021/05/07 09:43:30;;;;;;;5.63;5.10;;;21.50;99.90;;;;;;5116080;28;20560;-77
2021/05/07 09:45:57;;;;;;;6.43;5.43;;;20.60;99.90;;;;;;5116227;28;20740;-77
2021/05/07 09:48:25;;;;;;;5.57;4.63;;;19.20;99.90;;;;;;5118153;28;20249;-79
2021/05/07 09:50:56;;;;;;;7.57;4.30;;;18.10;99.90;;;;;;5118129;28;20217;-78
2021/05/07 09:53:24;;;;;;;5.30;4.33;;;17.10;99.90;;;;;;5117750;28;20232;-77
2021/05/07 09:55:53;;;;;;;6.97;4.10;;;18.40;99.90;;;;;;5117713;28;20311;-78
2021/05/07 09:58:20;;;;;;;4.80;4.30;;;19.80;99.90;;;;;;5116001;27;20209;-76
2021/05/07 10:00:46;;;;;;;6.50;5.23;;;19.70;99.90;;;;;;5116069;28;20191;-76
2021/05/07 10:03:13;;;;;;;4.90;4.27;;;19.90;99.90;;;;;;5116174;28;20296;-77
2021/05/07 10:05:39;;;;;;;5.50;4.57;;;20.90;99.90;;;;;;5117017;28;20557;-77
2021/05/07 10:08:06;;;;;;;7.23;5.17;;;20.10;99.90;;;;;;5116007;28;20766;-76
2021/05/07 10:10:36;;;;;;;7.53;4.90;;;19.90;99.90;;;;;;5116360;28;20664;-78
2021/05/07 10:13:04;;;;;;;5.50;3.90;;;18.40;99.90;;;;;;5116438;28;20601;-76
2021/05/07 10:15:35;;;;;;;5.53;3.80;;;18.90;99.90;;;;;;5116008;28;20186;-78
2021/05/07 10:18:01;;;;;;;5.53;3.53;;;20.10;99.90;;;;;;5116911;28;20229;-76
2021/05/07 10:20:30;;;;;;;5.57;4.30;;;21.60;99.90;;;;;;5116233;28;20226;-76
2021/05/07 10:22:56;;;;;;;5.23;4.03;;;22.80;99.90;;;;;;5116204;28;20300;-76
2021/05/07 10:25:24;;;;;;;4.93;3.60;;;21.80;99.90;;;;;;5115823;28;20289;-78
2021/05/07 10:27:53;;;;;;;4.30;3.33;;;19.30;99.90;;;;;;5115550;28;20225;-78
2021/05/07 10:30:25;;;;;;;4.23;3.27;;;17.90;99.90;;;;;;5115706;28;20217;-80
2021/05/07 10:33:01;;;;;;;4.63;3.37;;;17.10;99.90;;;;;;5115504;28;20194;-79
2021/05/07 10:35:32;;;;;;;5.27;4.03;;;16.30;99.90;;;;;;5114707;28;20706;-78
2021/05/07 10:38:16;;;;;;;6.67;3.23;;;15.70;99.90;;;;;;5115257;28;20293;-79
2021/05/07 10:40:44;;;;;;;4.20;3.00;;;16.70;99.90;;;;;;5114861;28;20535;-78
2021/05/07 10:43:11;;;;;;;5.37;3.50;;;17.80;99.90;;;;;;5115081;28;20198;-78
2021/05/07 10:45:49;;;;;;;4.30;3.20;;;19.20;99.90;;;;;;5114373;28;20656;-81
2021/05/07 10:48:24;;;;;;;3.67;3.20;;;19.80;99.90;;;;;;5114650;28;20257;-77
2021/05/07 10:50:53;;;;;;;3.60;3.30;;;20.30;99.90;;;;;;5102124;28;20237;-84
2021/05/07 10:53:33;;;;;;;4.33;3.63;;;20.40;99.90;;;;;;5114489;28;20663;-78
2021/05/07 10:56:00;;;;;;;6.03;3.93;;;21.30;99.90;;;;;;5114514;28;20198;-81
2021/05/07 10:58:35;;;;;;;4.93;3.80;;;21.90;99.90;;;;;;5114870;28;20558;-81
2021/05/07 11:01:15;;;;;;;3.73;3.17;;;21.80;99.90;;;;;;5114635;28;20197;-80
2021/05/07 11:03:41;;;;;;;5.00;3.60;;;22.00;98.90;;;;;;5114245;28;20217;-77
2021/05/07 11:06:07;;;;;;;6.17;3.97;;;20.80;98.60;;;;;;5113718;28;20190;-77
2021/05/07 11:08:34;;;;;;;4.83;4.37;;;21.50;99.50;;;;;;5114012;28;20317;-77
2021/05/07 11:11:00;;;;;;;7.13;4.67;;;19.70;99.90;;;;;;5114142;28;20201;-78
2021/05/07 11:13:27;;;;;;;5.37;4.20;;;18.90;99.90;;;;;;5113295;28;20216;-81
2021/05/07 11:15:59;;;;;;;5.07;4.13;;;18.70;99.90;;;;;;5113544;28;20614;-77
2021/05/07 11:18:30;;;;;;;9.03;4.20;;;20.00;99.90;;;;;;5113412;28;20288;-79
2021/05/07 11:20:57;;;;;;;4.67;4.13;;;21.50;99.90;;;;;;5113552;28;20676;-77
2021/05/07 11:23:29;;;;;;;4.37;4.00;;;22.30;99.90;;;;;;5113766;28;20214;-77
2021/05/07 11:25:56;;;;;;;5.83;4.50;;;22.70;99.90;;;;;;5113713;28;20322;-77
2021/05/07 11:28:23;;;;;;;6.47;4.20;;;21.60;99.50;;;;;;5112837;28;20274;-77
2021/05/07 11:30:51;;;;;;;5.40;4.23;;;22.20;98.80;;;;;;5113783;27;20198;-78
2021/05/07 11:33:21;;;;;;;5.17;4.67;;;22.90;99.00;;;;;;5113800;28;20204;-78
2021/05/07 11:35:47;;;;;;;5.13;4.47;;;21.90;98.90;;;;;;5113813;28;20198;-79
2021/05/07 11:38:14;;;;;;;6.53;4.60;;;21.90;98.40;;;;;;5113382;28;20688;-78
2021/05/07 11:40:42;;;;;;;8.73;5.00;;;22.40;98.70;;;;;;5113758;28;20614;-79
2021/05/07 11:43:10;;;;;;;4.97;4.47;;;22.50;97.60;;;;;;5114498;28;20220;-77
2021/05/07 11:45:37;;;;;;;5.80;4.50;;;21.30;98.30;;;;;;5113365;28;20646;-77
2021/05/07 11:48:07;;;;;;;6.57;4.33;;;19.90;99.30;;;;;;5113910;28;20309;-79
2021/05/07 11:50:35;;;;;;;4.60;4.20;;;19.30;99.90;;;;;;5113946;28;20635;-80
2021/05/07 11:53:01;;;;;;;5.07;4.33;;;19.30;99.70;;;;;;5113679;28;20660;-79
2021/05/07 11:55:31;;;;;;;5.73;3.70;;;19.90;99.90;;;;;;5114248;28;20225;-78
2021/05/07 11:58:02;;;;;;;3.93;3.57;;;20.50;97.90;;;;;;5114086;28;20205;-78
2021/05/07 12:00:28;;;;;;;6.30;4.27;;;20.60;97.30;;;;;;5114285;28;20233;-78
2021/05/07 12:02:59;;;;;;;4.93;3.77;;;20.90;96.80;;;;;;5113734;28;20285;-77
2021/05/07 12:05:30;;;;;;;5.03;4.23;;;20.60;97.60;;;;;;5113324;28;20654;-77
2021/05/07 12:07:58;;;;;;;6.10;4.37;;;20.10;99.20;;;;;;5113159;28;20309;-77
2021/05/07 12:10:26;;;;;;;4.90;4.40;;;19.30;99.90;;;;;;5113743;28;20222;-77
2021/05/07 12:12:54;;;;;;;5.87;4.50;;;19.50;99.90;;;;;;5113583;28;20340;-80
2021/05/07 12:15:22;;;;;;;4.90;4.40;;;18.90;99.90;;;;;;5112943;28;20190;-80
2021/05/07 12:17:50;;;;;;;5.50;4.53;;;18.20;99.90;;;;;;5112587;28;20209;-77
2021/05/07 12:20:19;;;;;;;5.57;4.20;;;18.40;99.90;;;;;;5112576;28;20190;-77
2021/05/07 12:22:46;;;;;;;6.03;4.40;;;18.80;99.90;;;;;;5112106;28;20335;-79
2021/05/07 12:25:15;;;;;;;4.70;4.20;;;18.60;99.20;;;;;;5113221;28;20289;-76
2021/05/07 12:27:43;;;;;;;4.57;4.17;;;19.10;99.90;;;;;;5112560;28;20232;-76
2021/05/07 12:30:21;;;;;;;5.77;4.27;;;18.70;98.90;;;;;;5112661;28;20567;-80
2021/05/07 12:32:55;;;;;;;4.60;4.20;;;17.90;99.20;;;;;;5107523;28;20186;-78
2021/05/07 12:35:22;;;;;;;5.53;4.17;;;18.30;99.60;;;;;;5112112;28;20300;-77
2021/05/07 12:37:48;;;;;;;6.10;4.13;;;19.00;98.80;;;;;;5111974;28;20671;-79
2021/05/07 12:40:16;;;;;;;5.07;4.13;;;19.50;98.10;;;;;;5111740;28;20675;-76
2021/05/07 12:42:42;;;;;;;5.10;4.60;;;19.90;97.40;;;;;;5112190;28;20338;-77
2021/05/07 12:45:10;;;;;;;4.97;4.47;;;20.50;97.60;;;;;;5113289;28;20194;-77
2021/05/07 12:47:36;;;;;;;5.20;4.70;;;20.80;96.70;;;;;;5107517;28;20214;-76